createdAt,value
2022-08-08T00:00:53.279Z,89.80
2022-08-08T00:03:28.362Z,90.10
2022-08-08T00:06:41.452Z,90.10
2022-08-08T00:09:33.163Z,91.00
2022-08-08T00:12:10.355Z,90.90
2022-08-08T00:14:54.817Z,91.20
2022-08-08T00:18:03.843Z,91.70
2022-08-08T00:20:52.182Z,92.10
2022-08-08T00:23:47.683Z,92.40
2022-08-08T00:26:38.547Z,92.60
2022-08-08T00:29:45.069Z,92.80
2022-08-08T00:32:38.352Z,92.80
2022-08-08T00:35:25.417Z,92.80
2022-08-08T00:38:02.235Z,93.00
2022-08-08T00:41:11.218Z,93.30
2022-08-08T00:43:46.306Z,93.40
2022-08-08T00:46:58.613Z,93.60
2022-08-08T00:49:59.711Z,93.90
2022-08-08T00:53:06.697Z,93.60
2022-08-08T00:56:16.527Z,93.50
2022-08-08T00:59:44.606Z,94.00
2022-08-08T01:03:58.682Z,93.90
2022-08-08T01:06:16.227Z,94.00
2022-08-08T01:09:36.802Z,94.40
2022-08-08T01:11:54.136Z,94.40
2022-08-08T01:15:06.776Z,95.40
2022-08-08T01:18:16.062Z,95.60
2022-08-08T01:21:14.198Z,95.80
2022-08-08T01:24:13.865Z,95.50
2022-08-08T01:27:10.588Z,95.80
2022-08-08T01:30:03.789Z,95.90
2022-08-08T01:33:16.383Z,96.40
2022-08-08T01:36:22.979Z,96.60
2022-08-08T01:39:23.276Z,96.80
2022-08-08T01:42:35.571Z,97.30
2022-08-08T01:45:29.165Z,97.20
2022-08-08T01:48:30.701Z,98.00
2022-08-08T01:51:31.740Z,98.10
2022-08-08T01:55:26.797Z,99.10
2022-08-08T01:57:33.727Z,99.40
2022-08-08T02:00:25.951Z,99.20
2022-08-08T02:03:00.566Z,99.40
2022-08-08T02:05:56.618Z,99.70
2022-08-08T02:08:36.421Z,99.90
2022-08-08T02:12:00.020Z,99.90
2022-08-08T02:14:22.035Z,99.90
2022-08-08T02:17:10.655Z,99.90
2022-08-08T02:20:59.982Z,99.90
2022-08-08T02:23:35.145Z,99.90
2022-08-08T02:26:30.230Z,99.90
2022-08-08T02:29:26.008Z,99.90
2022-08-08T02:32:36.036Z,99.90
2022-08-08T02:35:10.689Z,99.90
2022-08-08T02:38:03.044Z,99.90
2022-08-08T02:40:50.104Z,99.90
2022-08-08T02:44:42.372Z,99.90
2022-08-08T02:47:13.801Z,99.90
2022-08-08T02:49:52.623Z,99.90
2022-08-08T02:52:51.737Z,99.90
2022-08-08T02:55:42.736Z,99.90
2022-08-08T02:58:44.208Z,99.90
2022-08-08T03:01:17.216Z,99.90
2022-08-08T03:05:03.694Z,99.90
2022-08-08T03:07:19.798Z,99.90
2022-08-08T03:10:33.658Z,99.90
2022-08-08T03:15:53.618Z,99.90
2022-08-08T03:16:12.998Z,99.90
2022-08-08T03:19:20.270Z,99.90
2022-08-08T03:21:58.298Z,99.90
2022-08-08T03:24:25.902Z,99.90
2022-08-08T03:27:01.832Z,99.90
2022-08-08T03:29:54.531Z,99.90
2022-08-08T03:33:03.770Z,99.90
2022-08-08T03:35:39.297Z,99.90
2022-08-08T03:38:56.873Z,99.90
2022-08-08T03:40:55.339Z,99.90
2022-08-08T03:43:22.266Z,99.90
2022-08-08T03:46:07.064Z,99.90
2022-08-08T03:49:08.940Z,99.90
2022-08-08T03:51:40.595Z,99.90
2022-08-08T03:54:10.332Z,99.90
2022-08-08T03:56:43.483Z,99.90
2022-08-08T03:59:22.560Z,99.90
2022-08-08T04:02:12.948Z,99.90
2022-08-08T04:04:37.746Z,99.90
2022-08-08T04:07:04.562Z,99.90
2022-08-08T04:09:58.797Z,99.90
2022-08-08T04:12:17.963Z,99.90
2022-08-08T04:14:46.549Z,99.90
2022-08-08T04:17:46.390Z,99.90
2022-08-08T04:20:06.189Z,99.90
2022-08-08T04:22:35.650Z,99.90
2022-08-08T04:25:04.265Z,99.90
2022-08-08T04:28:02.479Z,99.90
2022-08-08T04:30:19.705Z,99.90
2022-08-08T04:32:50.323Z,99.90
2022-08-08T04:35:22.364Z,99.90
2022-08-08T04:37:50.213Z,99.90
2022-08-08T04:40:18.053Z,99.90
2022-08-08T04:42:55.856Z,99.90
2022-08-08T04:45:23.723Z,99.90
2022-08-08T04:47:53.766Z,99.90
2022-08-08T04:50:25.507Z,99.90
2022-08-08T04:53:00.397Z,99.90
2022-08-08T04:55:29.181Z,99.90
2022-08-08T04:58:08.177Z,99.90
2022-08-08T05:00:37.642Z,99.90
2022-08-08T05:03:05.880Z,99.90
2022-08-08T05:05:44.511Z,99.90
2022-08-08T05:08:13.880Z,99.90
2022-08-08T05:10:40.734Z,99.90
2022-08-08T05:13:17.601Z,99.90
2022-08-08T05:16:54.214Z,99.90
2022-08-08T05:18:33.426Z,99.90
2022-08-08T05:21:00.743Z,99.90
2022-08-08T05:23:41.098Z,99.90
2022-08-08T05:26:14.099Z,99.90
2022-08-08T05:28:48.372Z,99.90
2022-08-08T05:32:04.049Z,99.90
2022-08-08T05:34:26.450Z,99.90
2022-08-08T05:36:56.405Z,99.90
2022-08-08T05:39:25.099Z,99.90
2022-08-08T05:41:57.901Z,99.90
2022-08-08T05:44:31.224Z,99.90
2022-08-08T05:47:03.060Z,99.90
2022-08-08T05:49:31.568Z,99.90
2022-08-08T05:51:58.653Z,99.90
2022-08-08T05:54:50.771Z,99.90
2022-08-08T05:57:16.114Z,99.90
2022-08-08T06:00:22.580Z,99.90
2022-08-08T06:03:10.736Z,99.90
2022-08-08T06:05:56.497Z,99.90
2022-08-08T06:08:37.223Z,99.90
2022-08-08T06:11:05.554Z,99.90
2022-08-08T06:13:36.450Z,99.90
2022-08-08T06:16:14.625Z,99.90
2022-08-08T06:18:42.965Z,99.90
2022-08-08T06:21:28.389Z,99.90
2022-08-08T06:24:03.593Z,99.90
2022-08-08T06:26:45.560Z,99.90
2022-08-08T06:29:59.322Z,99.90
2022-08-08T06:32:19.560Z,99.90
2022-08-08T06:35:11.874Z,99.90
2022-08-08T06:37:45.102Z,99.90
2022-08-08T06:40:17.986Z,99.90
2022-08-08T06:43:02.266Z,99.90
2022-08-08T06:45:33.597Z,99.90
2022-08-08T06:48:04.274Z,99.90
2022-08-08T06:50:38.713Z,99.90
2022-08-08T06:53:10.119Z,99.90
2022-08-08T06:55:42.127Z,99.90
2022-08-08T06:58:10.167Z,99.90
2022-08-08T07:00:41.036Z,99.90
2022-08-08T07:03:30.719Z,99.90
2022-08-08T07:06:03.284Z,99.90
2022-08-08T07:08:36.895Z,99.90
2022-08-08T07:11:05.114Z,99.90
2022-08-08T07:14:00.879Z,99.90
2022-08-08T07:16:55.858Z,99.90
2022-08-08T07:19:38.645Z,99.90
2022-08-08T07:22:12.198Z,99.90
2022-08-08T07:24:58.379Z,99.90
2022-08-08T07:27:47.155Z,99.90
2022-08-08T07:30:21.282Z,99.70
2022-08-08T07:32:53.681Z,99.30
2022-08-08T07:35:21.905Z,99.90
2022-08-08T07:38:04.567Z,99.50
2022-08-08T07:40:38.350Z,99.60
2022-08-08T07:43:09.475Z,99.00
2022-08-08T07:46:05.565Z,99.00
2022-08-08T07:48:23.921Z,98.80
2022-08-08T07:50:53.844Z,98.50
2022-08-08T07:54:00.935Z,98.40
2022-08-08T07:56:39.932Z,98.00
2022-08-08T07:59:14.361Z,97.90
2022-08-08T08:02:35.680Z,97.60
2022-08-08T08:04:42.290Z,97.30
2022-08-08T08:07:10.983Z,97.80
2022-08-08T08:09:40.191Z,97.50
2022-08-08T08:12:10.115Z,97.70
2022-08-08T08:15:07.259Z,97.30
2022-08-08T08:17:55.521Z,97.40
2022-08-08T08:20:29.767Z,97.30
2022-08-08T08:22:57.475Z,97.20
2022-08-08T08:25:43.134Z,96.60
2022-08-08T08:28:11.110Z,96.60
2022-08-08T08:30:48.565Z,96.40
2022-08-08T08:33:15.401Z,96.40
2022-08-08T08:36:18.414Z,96.30
2022-08-08T08:38:29.254Z,97.10
2022-08-08T08:40:59.065Z,97.30
2022-08-08T08:43:28.911Z,97.00
2022-08-08T08:45:57.673Z,96.90
2022-08-08T08:48:25.214Z,97.10
2022-08-08T08:50:53.885Z,96.70
2022-08-08T08:53:55.252Z,96.50
2022-08-08T08:56:11.248Z,96.50
2022-08-08T08:58:46.961Z,96.30
2022-08-08T09:01:20.691Z,96.50
2022-08-08T09:03:50.760Z,95.70
2022-08-08T09:06:26.286Z,95.80
2022-08-08T09:09:25.959Z,95.90
2022-08-08T09:12:02.399Z,95.60
2022-08-08T09:14:35.488Z,95.70
2022-08-08T09:17:11.707Z,96.00
2022-08-08T09:22:01.477Z,95.60
2022-08-08T09:22:27.639Z,95.10
2022-08-08T09:24:56.373Z,94.90
2022-08-08T09:27:56.082Z,95.30
2022-08-08T09:30:17.549Z,95.00
2022-08-08T09:33:54.243Z,94.90
2022-08-08T09:35:50.024Z,94.00
2022-08-08T09:38:53.059Z,94.20
2022-08-08T09:41:28.203Z,93.70
2022-08-08T09:44:34.084Z,94.50
2022-08-08T09:48:05.041Z,94.40
2022-08-08T09:49:58.877Z,93.80
2022-08-08T09:52:55.918Z,93.20
2022-08-08T09:55:51.527Z,93.00
2022-08-08T09:58:20.250Z,93.00
2022-08-08T10:00:59.003Z,93.10
2022-08-08T10:03:31.430Z,92.60
2022-08-08T10:05:58.726Z,93.00
2022-08-08T10:08:30.678Z,92.30
2022-08-08T10:11:11.935Z,91.80
2022-08-08T10:13:42.892Z,92.00
2022-08-08T10:16:09.813Z,91.90
2022-08-08T10:18:37.147Z,92.00
2022-08-08T10:21:23.240Z,91.80
2022-08-08T10:23:58.063Z,91.70
2022-08-08T10:26:57.416Z,91.30
2022-08-08T10:29:59.952Z,91.10
2022-08-08T10:32:39.016Z,90.80
2022-08-08T10:35:20.610Z,90.80
2022-08-08T10:38:05.443Z,90.50
2022-08-08T10:40:36.985Z,89.50
2022-08-08T10:43:05.815Z,90.00
2022-08-08T10:45:56.913Z,88.70
2022-08-08T10:48:57.103Z,88.80
2022-08-08T10:51:26.124Z,89.20
2022-08-08T10:53:59.572Z,87.30
2022-08-08T10:56:35.077Z,88.70
2022-08-08T10:59:08.233Z,87.30
2022-08-08T11:01:38.154Z,87.50
2022-08-08T11:04:10.856Z,85.30
2022-08-08T11:06:42.030Z,85.70
2022-08-08T11:09:20.210Z,85.60
2022-08-08T11:12:04.599Z,83.00
2022-08-08T11:14:33.324Z,83.70
2022-08-08T11:17:02.770Z,82.30
2022-08-08T11:19:33.626Z,83.00
2022-08-08T11:22:04.199Z,81.70
2022-08-08T11:24:35.879Z,80.10
2022-08-08T11:27:19.165Z,80.20
2022-08-08T11:30:04.210Z,80.80
2022-08-08T11:32:47.468Z,78.80
2022-08-08T11:35:29.327Z,80.50
2022-08-08T11:38:35.763Z,79.60
2022-08-08T11:40:52.841Z,80.70
2022-08-08T11:43:21.727Z,79.90
2022-08-08T11:46:14.190Z,78.60
2022-08-08T11:48:40.612Z,78.90
2022-08-08T11:51:29.892Z,79.00
2022-08-08T11:54:01.367Z,78.00
2022-08-08T11:56:34.410Z,76.30
2022-08-08T11:59:11.745Z,77.40
2022-08-08T12:01:38.931Z,75.50
2022-08-08T12:04:08.088Z,76.50
2022-08-08T12:06:35.022Z,74.50
2022-08-08T12:09:09.724Z,74.80
2022-08-08T12:11:44.247Z,74.40
2022-08-08T12:14:23.252Z,74.40
2022-08-08T12:16:53.149Z,74.50
2022-08-08T12:19:37.713Z,75.20
2022-08-08T12:22:13.359Z,75.40
2022-08-08T12:24:53.897Z,74.70
2022-08-08T12:27:26.851Z,74.30
2022-08-08T12:30:02.939Z,74.60
2022-08-08T12:32:42.550Z,75.00
2022-08-08T12:35:23.431Z,74.30
2022-08-08T12:38:08.997Z,74.70
2022-08-08T12:40:57.082Z,75.20
2022-08-08T12:43:43.842Z,74.70
2022-08-08T12:46:19.124Z,73.60
2022-08-08T12:49:22.279Z,73.40
2022-08-08T12:51:58.691Z,72.60
2022-08-08T12:54:35.974Z,73.20
2022-08-08T12:57:32.886Z,72.60
2022-08-08T13:00:33.834Z,73.40
2022-08-08T13:03:05.724Z,72.10
2022-08-08T13:06:03.708Z,71.00
2022-08-08T13:08:21.996Z,70.30
2022-08-08T13:10:58.151Z,71.30
2022-08-08T13:13:37.101Z,70.60
2022-08-08T13:16:21.666Z,70.90
2022-08-08T13:19:06.551Z,71.20
2022-08-08T13:21:55.637Z,70.80
2022-08-08T13:24:40.924Z,68.90
2022-08-08T13:27:36.146Z,69.50
2022-08-08T13:30:06.225Z,69.30
2022-08-08T13:32:39.604Z,68.90
2022-08-08T13:35:11.680Z,69.10
2022-08-08T13:38:06.864Z,69.10
2022-08-08T13:40:35.715Z,68.90
2022-08-08T13:43:03.682Z,69.10
2022-08-08T13:45:31.340Z,68.80
2022-08-08T13:47:59.060Z,67.80
2022-08-08T13:50:39.572Z,67.90
2022-08-08T13:53:22.723Z,67.30
2022-08-08T13:56:01.238Z,66.90
2022-08-08T13:58:33.259Z,67.70
2022-08-08T14:01:23.273Z,66.90
2022-08-08T14:04:01.151Z,65.90
2022-08-08T14:06:34.297Z,65.30
2022-08-08T14:09:25.466Z,65.70
2022-08-08T14:11:50.272Z,66.40
2022-08-08T14:14:20.880Z,66.60
2022-08-08T14:16:53.200Z,65.90
2022-08-08T14:19:57.771Z,65.10
2022-08-08T14:22:19.569Z,65.30
2022-08-08T14:24:59.785Z,66.10
2022-08-08T14:27:33.297Z,65.40
2022-08-08T14:30:18.077Z,64.30
2022-08-08T14:32:53.459Z,64.10
2022-08-08T14:35:28.330Z,63.40
2022-08-08T14:38:33.418Z,63.80
2022-08-08T14:40:54.198Z,63.10
2022-08-08T14:44:01.688Z,64.30
2022-08-08T14:46:31.113Z,62.60
2022-08-08T14:49:20.753Z,63.40
2022-08-08T14:52:08.079Z,62.90
2022-08-08T14:54:48.898Z,62.80
2022-08-08T14:57:16.643Z,61.70
2022-08-08T14:59:51.241Z,62.00
2022-08-08T15:02:25.774Z,61.70
2022-08-08T15:05:08.258Z,61.40
2022-08-08T15:07:40.483Z,62.10
2022-08-08T15:10:10.099Z,61.60
2022-08-08T15:12:37.729Z,61.20
2022-08-08T15:15:06.855Z,63.20
2022-08-08T15:17:37.058Z,61.50
2022-08-08T15:20:07.513Z,62.00
2022-08-08T15:22:36.641Z,61.40
2022-08-08T15:25:08.716Z,61.60
2022-08-08T15:28:04.515Z,61.30
2022-08-08T15:30:31.883Z,60.60
2022-08-08T15:32:59.392Z,61.80
2022-08-08T15:35:27.291Z,61.50
2022-08-08T15:37:56.661Z,61.30
2022-08-08T15:40:23.406Z,62.00
2022-08-08T15:42:55.825Z,61.70
2022-08-08T15:45:22.980Z,61.80
2022-08-08T15:48:05.492Z,61.80
2022-08-08T15:51:03.165Z,61.20
2022-08-08T15:53:40.525Z,60.00
2022-08-08T15:56:19.804Z,61.00
2022-08-08T15:58:48.579Z,60.60
2022-08-08T16:01:16.667Z,61.60
2022-08-08T16:03:47.984Z,61.30
2022-08-08T16:06:27.378Z,61.50
2022-08-08T16:13:00.804Z,61.20
2022-08-08T16:13:05.474Z,60.60
2022-08-08T16:14:33.919Z,60.60
2022-08-08T16:17:01.241Z,60.20
2022-08-08T16:19:30.082Z,60.00
2022-08-08T16:21:57.979Z,60.70
2022-08-08T16:24:24.803Z,59.90
2022-08-08T16:26:51.486Z,59.70
2022-08-08T16:29:28.219Z,60.20
2022-08-08T16:32:11.242Z,60.20
2022-08-08T16:34:41.151Z,60.80
2022-08-08T16:37:07.828Z,60.40
2022-08-08T16:40:01.001Z,60.60
2022-08-08T16:42:25.028Z,60.50
2022-08-08T16:44:54.356Z,60.00
2022-08-08T16:47:40.069Z,60.80
2022-08-08T16:50:13.949Z,61.50
2022-08-08T16:55:03.627Z,60.80
2022-08-08T16:55:52.953Z,61.10
2022-08-08T16:58:20.495Z,61.30
2022-08-08T17:00:48.969Z,61.40
2022-08-08T17:03:24.459Z,60.40
2022-08-08T17:05:53.784Z,60.60
2022-08-08T17:08:20.630Z,60.20
2022-08-08T17:10:57.716Z,60.00
2022-08-08T17:13:50.290Z,60.10
2022-08-08T17:16:15.002Z,60.60
2022-08-08T17:18:42.372Z,60.80
2022-08-08T17:21:10.524Z,61.10
2022-08-08T17:24:01.982Z,61.00
2022-08-08T17:26:28.813Z,61.70
2022-08-08T17:29:04.298Z,61.00
2022-08-08T17:31:44.186Z,61.50
2022-08-08T17:34:36.902Z,61.30
2022-08-08T17:37:06.744Z,61.90
2022-08-08T17:40:03.211Z,61.70
2022-08-08T17:42:23.660Z,62.10
2022-08-08T17:44:52.441Z,62.10
2022-08-08T17:47:23.639Z,62.60
2022-08-08T17:49:52.598Z,63.40
2022-08-08T17:52:23.305Z,63.60
2022-08-08T17:54:51.992Z,63.90
2022-08-08T17:57:23.162Z,64.20
2022-08-08T17:59:49.890Z,64.50
2022-08-08T18:02:28.457Z,64.60
2022-08-08T18:04:58.011Z,64.50
2022-08-08T18:08:01.133Z,64.60
2022-08-08T18:10:12.811Z,64.10
2022-08-08T18:12:39.620Z,64.60
2022-08-08T18:15:10.049Z,64.80
2022-08-08T18:18:08.927Z,65.10
2022-08-08T18:20:36.825Z,65.10
2022-08-08T18:23:12.477Z,66.00
2022-08-08T18:25:45.288Z,65.40
2022-08-08T18:28:13.686Z,66.10
2022-08-08T18:30:42.807Z,65.70
2022-08-08T18:33:36.278Z,66.10
2022-08-08T18:36:03.244Z,66.60
2022-08-08T18:38:32.410Z,66.60
2022-08-08T18:41:03.349Z,67.00
2022-08-08T18:43:38.057Z,67.10
2022-08-08T18:46:55.236Z,67.30
2022-08-08T18:48:57.906Z,67.90
2022-08-08T18:51:52.837Z,68.50
2022-08-08T18:54:22.369Z,68.50
2022-08-08T18:56:53.764Z,69.10
2022-08-08T18:59:20.803Z,69.20
2022-08-08T19:02:14.239Z,69.60
2022-08-08T19:04:36.852Z,70.20
2022-08-08T19:07:03.997Z,70.60
2022-08-08T19:09:49.190Z,70.60
2022-08-08T19:12:19.130Z,71.00
2022-08-08T19:14:46.616Z,71.70
2022-08-08T19:18:30.979Z,71.50
2022-08-08T19:20:02.344Z,71.80
2022-08-08T19:22:29.908Z,71.90
2022-08-08T19:25:05.119Z,72.10
2022-08-08T19:27:57.469Z,71.90
2022-08-08T19:30:27.598Z,72.20
2022-08-08T19:32:58.065Z,72.20
2022-08-08T19:35:45.108Z,72.30
2022-08-08T19:38:17.445Z,72.60
2022-08-08T19:40:55.822Z,72.60
2022-08-08T19:43:28.700Z,73.40
2022-08-08T19:45:59.331Z,73.20
2022-08-08T19:48:29.231Z,73.20
2022-08-08T19:50:59.278Z,73.60
2022-08-08T19:53:53.192Z,73.90
2022-08-08T19:56:13.980Z,74.00
2022-08-08T19:58:43.551Z,74.00
2022-08-08T20:01:22.754Z,74.50
2022-08-08T20:04:00.879Z,74.70
2022-08-08T20:06:29.932Z,74.90
2022-08-08T20:08:56.935Z,75.10
2022-08-08T20:11:24.542Z,74.70
2022-08-08T20:14:33.055Z,75.00
2022-08-08T20:16:40.728Z,75.60
2022-08-08T20:19:11.009Z,75.70
2022-08-08T20:21:38.509Z,75.80
2022-08-08T20:24:07.714Z,75.90
2022-08-08T20:26:38.107Z,76.00
2022-08-08T20:29:06.959Z,76.50
2022-08-08T20:32:02.504Z,77.00
2022-08-08T20:34:29.588Z,77.50
2022-08-08T20:37:02.458Z,77.80
2022-08-08T20:39:33.988Z,78.20
2022-08-08T20:42:08.853Z,78.20
2022-08-08T20:44:36.056Z,78.20
2022-08-08T20:47:04.827Z,78.50
2022-08-08T20:49:46.951Z,79.50
2022-08-08T20:52:16.619Z,78.60
2022-08-08T20:54:44.367Z,78.70
2022-08-08T20:57:18.753Z,78.50
2022-08-08T20:59:46.919Z,78.70
2022-08-08T21:02:19.722Z,79.20
2022-08-08T21:05:00.818Z,79.90
2022-08-08T21:07:47.328Z,78.80
2022-08-08T21:10:17.343Z,79.10
2022-08-08T21:12:44.669Z,79.50
2022-08-08T21:15:16.726Z,79.40
2022-08-08T21:18:02.859Z,79.70
2022-08-08T21:20:34.036Z,80.20
2022-08-08T21:23:02.284Z,80.30
2022-08-08T21:25:36.115Z,80.50
2022-08-08T21:28:09.555Z,81.30
2022-08-08T21:30:45.205Z,80.70
2022-08-08T21:33:16.352Z,80.50
2022-08-08T21:36:16.950Z,80.90
2022-08-08T21:38:30.247Z,81.30
2022-08-08T21:40:57.933Z,81.50
2022-08-08T21:43:33.431Z,81.70
2022-08-08T21:48:05.021Z,81.50
2022-08-08T21:48:56.335Z,81.80
2022-08-08T21:54:17.119Z,81.90
2022-08-08T21:54:33.038Z,81.90
2022-08-08T21:57:01.119Z,82.50
2022-08-08T21:59:59.362Z,82.30
2022-08-08T22:02:19.661Z,82.10
2022-08-08T22:04:55.936Z,82.30
2022-08-08T22:07:26.186Z,82.50
2022-08-08T22:10:01.780Z,82.90
2022-08-08T22:12:28.504Z,82.30
2022-08-08T22:14:59.269Z,82.70
2022-08-08T22:17:26.691Z,83.60
2022-08-08T22:20:12.241Z,84.10
2022-08-08T22:22:40.180Z,83.60
2022-08-08T22:25:17.672Z,84.30
2022-08-08T22:28:04.011Z,85.00
2022-08-08T22:30:38.720Z,84.60
2022-08-08T22:33:09.092Z,85.00
2022-08-08T22:36:05.225Z,85.20
2022-08-08T22:38:37.917Z,85.30
2022-08-08T22:41:16.320Z,85.70
2022-08-08T22:44:05.393Z,85.80
2022-08-08T22:46:34.420Z,86.30
2022-08-08T22:49:06.034Z,86.30
2022-08-08T22:51:34.963Z,86.30
2022-08-08T22:54:34.253Z,86.90
2022-08-08T22:56:50.290Z,86.90
2022-08-08T22:59:18.441Z,87.50
2022-08-08T23:02:03.498Z,87.90
2022-08-08T23:04:32.453Z,87.90
2022-08-08T23:07:02.608Z,88.20
2022-08-08T23:09:31.254Z,89.40
2022-08-08T23:12:28.130Z,89.10
2022-08-08T23:14:59.859Z,88.60
2022-08-08T23:17:46.544Z,88.90
2022-08-08T23:20:21.226Z,89.20
2022-08-08T23:22:55.062Z,89.20
2022-08-08T23:25:22.042Z,89.60
2022-08-08T23:27:49.271Z,90.10
2022-08-08T23:30:22.505Z,90.20
2022-08-08T23:32:50.854Z,90.30
2022-08-08T23:35:18.863Z,90.60
2022-08-08T23:38:03.177Z,90.80
2022-08-08T23:40:30.951Z,91.00
2022-08-08T23:42:57.839Z,91.20
2022-08-08T23:49:01.797Z,91.40
2022-08-08T23:49:06.560Z,91.60
2022-08-08T23:50:58.855Z,91.90
2022-08-08T23:54:05.458Z,92.30
2022-08-08T23:56:14.086Z,92.60
2022-08-08T23:58:58.938Z,92.70
